地図

経路データ

SID SEASON NUMBER BASIN SUBBASIN NAME ISO_TIME NATURE LAT LON WMO_WIND WMO_PRES WMO_AGENCY TRACK_TYPE DIST2LAND LANDFALL IFLAG USA_AGENCY USA_ATCF_ID USA_LAT USA_LON USA_RECORD USA_STATUS USA_WIND USA_PRES USA_SSHS USA_R34_NE USA_R34_SE USA_R34_SW USA_R34_NW USA_R50_NE USA_R50_SE USA_R50_SW USA_R50_NW USA_R64_NE USA_R64_SE USA_R64_SW USA_R64_NW USA_POCI USA_ROCI USA_RMW USA_EYE TOKYO_LAT TOKYO_LON TOKYO_GRADE TOKYO_WIND TOKYO_PRES TOKYO_R50_DIR TOKYO_R50_LONG TOKYO_R50_SHORT TOKYO_R30_DIR TOKYO_R30_LONG TOKYO_R30_SHORT TOKYO_LAND CMA_LAT CMA_LON CMA_CAT CMA_WIND CMA_PRES HKO_LAT HKO_LON HKO_CAT HKO_WIND HKO_PRES NEWDELHI_LAT NEWDELHI_LON NEWDELHI_GRADE NEWDELHI_WIND NEWDELHI_PRES NEWDELHI_CI NEWDELHI_DP NEWDELHI_POCI REUNION_LAT REUNION_LON REUNION_TYPE REUNION_WIND REUNION_PRES REUNION_TNUM REUNION_CI REUNION_RMW REUNION_R34_NE REUNION_R34_SE REUNION_R34_SW REUNION_R34_NW REUNION_R50_NE REUNION_R50_SE REUNION_R50_SW REUNION_R50_NW REUNION_R64_NE REUNION_R64_SE REUNION_R64_SW REUNION_R64_NW BOM_LAT BOM_LON BOM_TYPE BOM_WIND BOM_PRES BOM_TNUM BOM_CI BOM_RMW BOM_R34_NE BOM_R34_SE BOM_R34_SW BOM_R34_NW BOM_R50_NE BOM_R50_SE BOM_R50_SW BOM_R50_NW BOM_R64_NE BOM_R64_SE BOM_R64_SW BOM_R64_NW BOM_ROCI BOM_POCI BOM_EYE BOM_POS_METHOD BOM_PRES_METHOD NADI_LAT NADI_LON NADI_CAT NADI_WIND NADI_PRES WELLINGTON_LAT WELLINGTON_LON WELLINGTON_WIND WELLINGTON_PRES DS824_LAT DS824_LON DS824_STAGE DS824_WIND DS824_PRES TD9636_LAT TD9636_LON TD9636_STAGE TD9636_WIND TD9636_PRES TD9635_LAT TD9635_LON TD9635_WIND TD9635_PRES TD9635_ROCI NEUMANN_LAT NEUMANN_LON NEUMANN_CLASS NEUMANN_WIND NEUMANN_PRES MLC_LAT MLC_LON MLC_CLASS MLC_WIND MLC_PRES USA_GUST BOM_GUST BOM_GUST_PER REUNION_GUST REUNION_GUST_PER USA_SEAHGT USA_SEARAD_NE USA_SEARAD_SE USA_SEARAD_SW USA_SEARAD_NW STORM_SPEED STORM_DIR
1981047S18181 1981 11 SP MM NOT_NAMED 1981-02-16 00:00:00 NR -18.0000 -179.000 30 997 wellington main 177 177 ________O_____ -1 -18.0000 -179.000 30 997 13 136
1981047S18181 1981 11 SP MM NOT_NAMED 1981-02-16 03:00:00 NR -18.4712 -178.525 main 254 254 ________P_____ -1 -18.4712 -178.525 30 997 13 134
1981047S18181 1981 11 SP MM NOT_NAMED 1981-02-16 06:00:00 NR -18.9237 -178.008 main 323 323 ________P_____ -1 -18.9237 -178.008 30 997 14 130
1981047S18181 1981 11 SP MM NOT_NAMED 1981-02-16 09:00:00 NR -19.3394 -177.413 main 399 399 ________P_____ -1 -19.3394 -177.413 30 997 15 122
1981047S18181 1981 11 SP MM NOT_NAMED 1981-02-16 12:00:00 NR -19.7000 -176.700 30 997 wellington main 483 483 ________O_____ -1 -19.7000 -176.700 30 997 16 114
1981047S18181 1981 11 SP MM NOT_NAMED 1981-02-16 15:00:00 NR -19.9892 -175.848 main 577 577 ________P_____ -1 -19.9892 -175.848 30 997 18 107
1981047S18181 1981 11 SP MM NOT_NAMED 1981-02-16 18:00:00 NR -20.2024 -174.903 main 667 667 ________P_____ -1 -20.2024 -174.903 30 997 18 101
1981047S18181 1981 11 SP MM NOT_NAMED 1981-02-16 21:00:00 NR -20.3391 -173.932 main 740 739 ________P_____ -1 -20.3391 -173.932 30 997 18 96
1981047S18181 1981 11 SP MM NOT_NAMED 1981-02-17 00:00:00 NR -20.4000 -173.000 30 997 wellington main 739 738 ________O_____ -1 -20.4000 -173.000 30 997 17 92
1981047S18181 1981 11 SP MM NOT_NAMED 1981-02-17 03:00:00 NR -20.3958 -172.157 main 738 730 ________P_____ -1 -20.3958 -172.157 30 997 15 87
1981047S18181 1981 11 SP MM NOT_NAMED 1981-02-17 06:00:00 NR -20.3239 -171.371 main 732 731 ________P_____ -1 -20.3239 -171.371 30 997 14 83
1981047S18181 1981 11 SP MM NOT_NAMED 1981-02-17 09:00:00 NR -20.2150 -170.648 main 736 733 ________P_____ -1 -20.2150 -170.648 30 997 13 80
1981047S18181 1981 11 SP MM NOT_NAMED 1981-02-17 12:00:00 NR -20.1000 -170.000 30 997 wellington main 742 742 ________O_____ -1 -20.1000 -170.000 30 997 12 81
1981047S18181 1981 11 SP MM NOT_NAMED 1981-02-17 15:00:00 NR -20.0355 -169.429 main 755 755 ________P_____ -1 -20.0355 -169.429 30 997 10 83
1981047S18181 1981 11 SP MM NOT_NAMED 1981-02-17 18:00:00 NR -19.9705 -168.926 main 777 772 ________P_____ -1 -19.9705 -168.926 30 997 9 81
1981047S18181 1981 11 SP MM NOT_NAMED 1981-02-17 21:00:00 NR -19.8952 -168.460 main 787 787 ________P_____ -1 -19.8952 -168.460 30 997 9 79
1981047S18181 1981 11 SP MM NOT_NAMED 1981-02-18 00:00:00 NR -19.8000 -168.000 30 997 wellington main 806 806 ________O_____ -1 -19.8000 -168.000 30 997 9 73
1981047S18181 1981 11 SP MM NOT_NAMED 1981-02-18 03:00:00 NR -19.6337 -167.540 main 819 819 ________P_____ -1 -19.6337 -167.540 30 997 9 68
1981047S18181 1981 11 SP MM NOT_NAMED 1981-02-18 06:00:00 NR -19.4530 -167.074 main 837 836 ________P_____ -1 -19.4530 -167.074 30 997 10 70
1981047S18181 1981 11 SP MM NOT_NAMED 1981-02-18 09:00:00 NR -19.2959 -166.571 main 857 857 ________P_____ -1 -19.2959 -166.571 30 997 10 76
1981047S18181 1981 11 SP MM NOT_NAMED 1981-02-18 12:00:00 NR -19.2000 -166.000 30 997 wellington main 895 895 ________O_____ -1 -19.2000 -166.000 30 997 12 82
1981047S18181 1981 11 SP MM NOT_NAMED 1981-02-18 15:00:00 NR -19.1218 -165.304 main 945 945 ________P_____ -1 -19.1218 -165.304 32 995 14 87
1981047S18181 1981 11 SP MM NOT_NAMED 1981-02-18 18:00:00 NR -19.1187 -164.542 main 1012 1012 ________P_____ -1 -19.1187 -164.542 35 993 15 94
1981047S18181 1981 11 SP MM NOT_NAMED 1981-02-18 21:00:00 NR -19.2311 -163.759 main 1080 1080 ________P_____ -1 -19.2311 -163.759 37 991 15 105
1981047S18181 1981 11 SP MM NOT_NAMED 1981-02-19 00:00:00 NR -19.5000 -163.000 40 990 wellington main 1169 1169 ________O_____ -1 -19.5000 -163.000 40 990 15 113
1981047S18181 1981 11 SP MM NOT_NAMED 1981-02-19 03:00:00 NR -19.8246 -162.310 main 1249 1249 ________P_____ -1 -19.8246 -162.310 42 988 15 123
1981047S18181 1981 11 SP MM NOT_NAMED 1981-02-19 06:00:00 NR -20.3228 -161.649 main 1340 1340 ________P_____ -1 -20.3228 -161.649 45 987 17 135
1981047S18181 1981 11 SP MM NOT_NAMED 1981-02-19 09:00:00 NR -21.0343 -161.014 main 1434 1434 ________P_____ -1 -21.0343 -161.014 47 986 21 145
1981047S18181 1981 11 SP MM NOT_NAMED 1981-02-19 12:00:00 NR -22.0000 -160.400 50 985 wellington main 1548 1548 ________O_____ -1 -22.0000 -160.400 50 985 26 152
1981047S18181 1981 11 SP MM NOT_NAMED 1981-02-19 15:00:00 NR -23.3305 -159.699 main 1691 1691 ________P_____ -1 -23.3305 -159.699 48 985 32 156
1981047S18181 1981 11 SP MM NOT_NAMED 1981-02-19 18:00:00 NR -24.8896 -159.022 main 1857 1857 ________P_____ -1 -24.8896 -159.022 47 986 34 160
1981047S18181 1981 11 SP MM NOT_NAMED 1981-02-19 21:00:00 NR -26.5037 -158.431 main 2019 2019 ________P_____ -1 -26.5037 -158.431 46 986 33 164
1981047S18181 1981 11 SP MM NOT_NAMED 1981-02-20 00:00:00 NR -28.0000 -158.000 45 987 wellington main 2162 2162 ________O_____ -1 -28.0000 -158.000 45 987 27 169
1981047S18181 1981 11 SP MM NOT_NAMED 1981-02-20 03:00:00 NR -29.1409 -157.855 main 2257 2257 ________P_____ -1 -29.1409 -157.855 43 987 22 177
1981047S18181 1981 11 SP MM NOT_NAMED 1981-02-20 06:00:00 NR -30.1466 -157.877 main 2316 2262 ________P_____ -1 -30.1466 -157.877 42 988 19 183
1981047S18181 1981 11 SP MM NOT_NAMED 1981-02-20 09:00:00 NR -31.0792 -157.962 main 2257 2220 ________P_____ -1 -31.0792 -157.962 41 989 19 183
1981047S18181 1981 11 SP MM NOT_NAMED 1981-02-20 12:00:00 NR -32.0000 -158.000 40 990 wellington main 2216 2187 ________O_____ -1 -32.0000 -158.000 40 990 19 178
1981047S18181 1981 11 SP MM NOT_NAMED 1981-02-20 15:00:00 NR -32.9579 -157.901 main 2183 2166 ________P_____ -1 -32.9579 -157.901 37 991 20 172
1981047S18181 1981 11 SP MM NOT_NAMED 1981-02-20 18:00:00 NR -33.9526 -157.677 main 2164 2159 ________P_____ -1 -33.9526 -157.677 35 993 21 167
1981047S18181 1981 11 SP MM NOT_NAMED 1981-02-20 21:00:00 NR -34.9710 -157.363 main 2159 2159 ________P_____ -1 -34.9710 -157.363 32 995 21 165
1981047S18181 1981 11 SP MM NOT_NAMED 1981-02-21 00:00:00 NR -36.0000 -157.000 30 997 wellington main 2167 ________O_____ -1 -36.0000 -157.000 30 997 21 164

デジタル台風データ・検索

IBTrACS Databaseについて

本データベースは、米国NOAAが公開する1842年以降の世界の熱帯低気圧のベストトラックデータアーカイブInternational Best Track Archive for Climate Stewardship (IBTrACS)を、ウェブで閲覧しやすい形式に変換したものです。

最終更新日:2021-12-01